Time;durP1;ratioP1;P1;durP2;ratioP2;P2;SDS_P1;SDS_P2;PMS_P1;PMS_P2;Temp;Humidity;BMP_temperature;BMP_pressure;BME280_temperature;BME280_humidity;BME280_pressure;Samples;Min_cycle;Max_cycle;Signal;HPM_P1;HPM_P2
2020/12/18 00:01:36;;;;;;;3.30;0.85;;;9.80;99.90;;;;;;4920600;29;20059;-96
2020/12/18 00:04:22;;;;;;;5.38;0.77;;;9.80;99.90;;;;;;4921264;29;20027;-95
2020/12/18 00:07:08;;;;;;;3.00;0.77;;;9.80;99.90;;;;;;5144528;23;20032;-96
2020/12/18 00:12:09;;;;;;;6.22;0.88;;;9.80;99.90;;;;;;5430140;23;20060;-96
2020/12/18 00:14:41;;;;;;;3.13;0.88;;;9.80;99.90;;;;;;4915793;29;20024;-95
2020/12/18 00:42:26;;;;;;;2.20;0.60;;;9.80;99.90;;;;;;5655310;23;20115;-96
2020/12/18 00:44:51;;;;;;;2.85;0.70;;;9.80;99.90;;;;;;4943755;28;20047;-96
2020/12/18 00:47:45;;;;;;;0.52;0.38;;;9.80;99.90;;;;;;4938726;29;20056;-95
2020/12/18 01:12:55;;;;;;;8.05;1.40;;;10.00;99.90;;;;;;6013663;23;20145;-96
2020/12/18 01:19:17;;;;;;;4.32;1.55;;;10.10;99.90;;;;;;5220597;23;20040;-96
2020/12/18 01:22:10;;;;;;;4.20;1.58;;;10.10;99.90;;;;;;5315143;23;20060;-95
2020/12/18 01:49:13;;;;;;;1.35;1.20;;;10.30;99.90;;;;;;5015873;23;20063;-96
2020/12/18 02:17:32;;;;;;;1.40;1.05;;;10.40;99.90;;;;;;5179840;23;20068;-96
2020/12/18 02:37:25;;;;;;;4.28;1.30;;;10.50;99.90;;;;;;3520415;23;20315;-95
2020/12/18 03:56:06;;;;;;;1.75;1.30;;;10.90;99.90;;;;;;4924426;29;20052;-94
2020/12/18 03:58:33;;;;;;;7.72;2.33;;;10.90;99.90;;;;;;5109963;23;20063;-95
2020/12/18 04:29:39;;;;;;;5.10;1.20;;;11.00;99.90;;;;;;5519365;23;20059;-95
2020/12/18 04:32:10;;;;;;;2.08;1.00;;;11.00;99.90;;;;;;5262148;23;20040;-95
2020/12/18 04:34:36;;;;;;;;;;;11.00;99.90;;;;;;4924848;29;20075;-95
2020/12/18 04:37:02;;;;;;;2.50;1.30;;;10.90;99.90;;;;;;4930283;23;19907;-96
2020/12/18 05:04:18;;;;;;;6.07;1.10;;;11.00;99.90;;;;;;5452842;23;20047;-96
2020/12/18 05:06:44;;;;;;;1.52;0.90;;;11.00;99.90;;;;;;4918754;29;20032;-96
2020/12/18 05:09:23;;;;;;;2.00;0.80;;;11.00;99.90;;;;;;4913812;29;20034;-96
2020/12/18 05:11:52;;;;;;;2.53;0.85;;;10.90;99.90;;;;;;5669935;23;20123;-96
2020/12/18 05:14:28;;;;;;;2.38;1.02;;;11.00;99.90;;;;;;4921708;29;20064;-95
2020/12/18 05:57:44;;;;;;;1.45;0.98;;;11.10;99.90;;;;;;4949989;29;20056;-96
2020/12/18 06:03:35;;;;;;;1.52;0.60;;;11.10;99.90;;;;;;5096085;23;20064;-95
2020/12/18 06:06:17;;;;;;;2.38;0.77;;;11.10;99.90;;;;;;4931344;29;20083;-96
2020/12/18 08:05:43;;;;;;;1.55;0.90;;;11.10;99.90;;;;;;4933566;29;20052;-96
2020/12/18 08:08:28;;;;;;;1.33;1.15;;;11.00;99.90;;;;;;4923315;29;20040;-96
2020/12/18 08:11:02;;;;;;;0.60;0.60;;;11.10;99.90;;;;;;4911827;29;20130;-96
2020/12/18 08:13:59;;;;;;;0.88;0.88;;;11.10;99.90;;;;;;4902876;29;20497;-96
2020/12/18 08:21:49;;;;;;;1.00;0.93;;;11.10;99.90;;;;;;5297298;23;20044;-95
2020/12/18 08:27:48;;;;;;;2.03;1.38;;;11.10;99.90;;;;;;5583740;23;20029;-95
2020/12/18 08:30:26;;;;;;;1.23;1.13;;;11.20;99.90;;;;;;4879986;29;20047;-96
2020/12/18 08:32:55;;;;;;;1.50;1.23;;;11.20;99.90;;;;;;4889519;29;20033;-95
2020/12/18 08:35:22;;;;;;;1.13;0.95;;;11.20;99.90;;;;;;4883330;29;20390;-93
2020/12/18 08:37:49;;;;;;;1.42;1.10;;;11.20;99.90;;;;;;4886885;29;20032;-96
2020/12/18 08:40:25;;;;;;;2.13;1.30;;;11.20;99.90;;;;;;4885831;29;20039;-96
2020/12/18 08:42:59;;;;;;;1.40;0.85;;;11.20;99.90;;;;;;4885262;29;20039;-93
2020/12/18 08:45:25;;;;;;;1.00;0.70;;;11.20;99.90;;;;;;4884250;29;20112;-96
2020/12/18 08:47:51;;;;;;;1.55;1.08;;;11.30;99.90;;;;;;4884946;29;20028;-96
2020/12/18 08:50:18;;;;;;;1.23;0.80;;;11.30;99.90;;;;;;4883253;29;20060;-96
2020/12/18 08:52:46;;;;;;;0.80;0.80;;;11.20;99.90;;;;;;4879898;29;20029;-93
2020/12/18 08:55:12;;;;;;;0.80;0.80;;;11.30;99.90;;;;;;4880625;29;20069;-94
2020/12/18 08:57:38;;;;;;;0.75;0.70;;;11.20;99.90;;;;;;4882888;29;20033;-94
2020/12/18 09:00:13;;;;;;;1.48;0.90;;;11.30;99.90;;;;;;4880318;29;20076;-94
2020/12/18 09:02:43;;;;;;;0.88;0.60;;;11.30;99.90;;;;;;4882282;29;20562;-96
2020/12/18 09:05:26;;;;;;;0.60;0.60;;;11.30;99.90;;;;;;4886317;29;20491;-95
2020/12/18 09:08:09;;;;;;;0.85;0.63;;;11.30;99.90;;;;;;4889097;29;20037;-96
2020/12/18 09:10:40;;;;;;;1.85;0.95;;;11.30;99.90;;;;;;4886563;29;20040;-94
2020/12/18 09:13:33;;;;;;;1.27;0.75;;;11.40;99.90;;;;;;4886150;29;20033;-95
2020/12/18 09:16:00;;;;;;;3.60;0.60;;;11.40;99.90;;;;;;4869742;29;20137;-95
2020/12/18 09:18:44;;;;;;;2.55;1.17;;;11.40;99.90;;;;;;4971136;23;20033;-94
2020/12/18 09:21:24;;;;;;;0.70;0.70;;;11.50;99.90;;;;;;4917163;29;20032;-96
2020/12/18 09:23:52;;;;;;;0.82;0.70;;;11.40;99.90;;;;;;4916337;29;20016;-95
2020/12/18 09:26:30;;;;;;;0.88;0.50;;;11.50;99.90;;;;;;4915046;29;20016;-96
2020/12/18 09:28:59;;;;;;;1.10;0.77;;;11.50;99.90;;;;;;4915872;29;20087;-96
2020/12/18 09:31:35;;;;;;;0.70;0.70;;;11.50;99.90;;;;;;4919313;29;20036;-96
2020/12/18 09:34:14;;;;;;;1.02;0.63;;;11.50;99.90;;;;;;4915347;29;20028;-96
2020/12/18 09:36:49;;;;;;;0.80;0.60;;;11.50;99.90;;;;;;4915120;29;20021;-96
2020/12/18 09:39:16;;;;;;;0.68;0.60;;;11.50;99.90;;;;;;4914749;29;20104;-96
2020/12/18 09:41:43;;;;;;;0.65;0.50;;;11.50;99.90;;;;;;4917065;29;20048;-96
2020/12/18 09:44:12;;;;;;;3.75;1.13;;;11.60;99.90;;;;;;4905873;29;20125;-96
2020/12/18 09:46:40;;;;;;;0.73;0.73;;;11.50;99.90;;;;;;4916630;29;20036;-96
2020/12/18 09:49:11;;;;;;;1.13;0.60;;;11.60;99.90;;;;;;4937088;29;20067;-95
2020/12/18 09:51:45;;;;;;;0.93;0.70;;;11.60;99.90;;;;;;4915114;29;20044;-96
2020/12/18 09:54:10;;;;;;;4.85;0.82;;;11.50;99.90;;;;;;4913642;29;20281;-95
2020/12/18 09:56:42;;;;;;;11.85;1.58;;;11.60;99.90;;;;;;4913092;29;20075;-96
2020/12/18 09:59:08;;;;;;;2.45;0.80;;;11.60;99.90;;;;;;4911307;29;20024;-95
2020/12/18 10:01:40;;;;;;;4.60;0.88;;;11.50;99.90;;;;;;4920162;29;20036;-96
2020/12/18 10:04:13;;;;;;;0.98;0.70;;;11.60;99.90;;;;;;4940747;29;20040;-96
2020/12/18 10:06:53;;;;;;;1.27;0.80;;;11.60;99.90;;;;;;4936633;29;20051;-96
2020/12/18 10:09:22;;;;;;;3.78;0.80;;;11.60;99.90;;;;;;4922320;29;20028;-96
2020/12/18 10:12:03;;;;;;;1.55;0.70;;;11.60;99.90;;;;;;4924700;29;20032;-95
2020/12/18 10:14:39;;;;;;;3.33;0.70;;;11.60;99.90;;;;;;4925919;29;20019;-96
2020/12/18 10:20:28;;;;;;;3.67;1.00;;;11.60;99.90;;;;;;4901549;29;20064;-96
2020/12/18 10:23:00;;;;;;;3.47;0.88;;;11.60;99.90;;;;;;4895035;29;20041;-96
2020/12/18 10:26:09;;;;;;;2.30;0.85;;;11.60;99.90;;;;;;5249537;23;20048;-96
2020/12/18 10:28:39;;;;;;;3.83;1.00;;;11.60;99.90;;;;;;4924459;29;20036;-96
2020/12/18 10:31:13;;;;;;;1.80;0.70;;;11.60;99.90;;;;;;4921985;29;20029;-96
2020/12/18 10:33:43;;;;;;;5.13;0.90;;;11.60;99.90;;;;;;4921609;29;20024;-95
2020/12/18 10:36:14;;;;;;;3.80;0.60;;;11.60;99.90;;;;;;4920518;29;20095;-96
2020/12/18 10:38:58;;;;;;;1.05;0.80;;;11.60;99.90;;;;;;4920941;29;20025;-96
2020/12/18 10:41:33;;;;;;;3.55;0.70;;;11.60;99.90;;;;;;4908082;29;20044;-95
2020/12/18 10:44:06;;;;;;;1.67;1.13;;;11.60;99.90;;;;;;4922525;29;20025;-94
2020/12/18 10:46:35;;;;;;;2.55;0.90;;;11.60;99.90;;;;;;4922496;29;20025;-95
2020/12/18 10:49:34;;;;;;;1.80;1.00;;;11.60;99.90;;;;;;4922651;29;20016;-96
2020/12/18 10:52:03;;;;;;;2.03;0.80;;;11.60;99.90;;;;;;4906307;29;20039;-96
2020/12/18 10:54:37;;;;;;;2.28;1.00;;;11.60;99.90;;;;;;4920567;29;20028;-94
2020/12/18 10:57:16;;;;;;;1.40;0.55;;;11.60;99.90;;;;;;4909883;29;20084;-95
2020/12/18 10:59:57;;;;;;;0.98;0.70;;;11.50;99.90;;;;;;4938796;29;20023;-95
2020/12/18 11:02:37;;;;;;;0.98;0.60;;;11.50;99.90;;;;;;4940001;29;20070;-95
2020/12/18 11:05:49;;;;;;;1.13;0.80;;;11.50;99.90;;;;;;4939698;29;20068;-96
2020/12/18 11:08:24;;;;;;;4.18;0.68;;;11.50;99.90;;;;;;4924356;29;20032;-96
2020/12/18 11:10:56;;;;;;;1.48;0.80;;;11.50;99.90;;;;;;4925903;29;20103;-95
2020/12/18 11:18:36;;;;;;;1.30;0.70;;;11.40;99.90;;;;;;5877484;23;20114;-96
2020/12/18 11:21:19;;;;;;;2.58;0.60;;;11.40;99.90;;;;;;4939010;29;20100;-96
2020/12/18 11:23:49;;;;;;;0.30;0.30;;;11.40;99.90;;;;;;4938863;29;20043;-95
2020/12/18 11:27:22;;;;;;;1.60;0.43;;;11.40;99.90;;;;;;4923303;29;20024;-95
2020/12/18 11:32:55;;;;;;;1.20;0.50;;;11.50;99.90;;;;;;5034286;23;20044;-96
2020/12/18 11:39:16;;;;;;;0.45;0.40;;;11.50;99.90;;;;;;5423409;23;20060;-95
2020/12/18 11:53:23;;;;;;;0.30;0.30;;;11.40;99.90;;;;;;5877869;23;20842;-96
2020/12/18 12:01:31;;;;;;;1.08;0.45;;;11.50;99.90;;;;;;5130916;23;20063;-95
2020/12/18 12:04:27;;;;;;;0.32;0.32;;;11.50;99.90;;;;;;4935283;29;20044;-96
2020/12/18 12:07:06;;;;;;;0.85;0.40;;;11.40;99.90;;;;;;4923509;29;20490;-96
2020/12/18 12:12:37;;;;;;;0.50;0.50;;;11.50;99.90;;;;;;5040221;23;19922;-96
2020/12/18 12:15:11;;;;;;;0.70;0.50;;;11.50;99.90;;;;;;4927364;29;20079;-96
2020/12/18 12:17:46;;;;;;;;;;;;;;;;;;;;;
2020/12/18 12:32:00;;;;;;;3.10;1.10;;;11.50;99.90;;;;;;4989228;23;20063;-96
2020/12/18 12:34:29;;;;;;;0.88;0.80;;;11.50;99.90;;;;;;5148403;23;20062;-94
2020/12/18 12:42:22;;;;;;;0.75;0.73;;;11.50;99.90;;;;;;5013341;23;20052;-96
2020/12/18 12:45:23;;;;;;;1.73;0.60;;;11.50;99.90;;;;;;4938984;29;20112;-96
2020/12/18 12:48:14;;;;;;;1.00;0.52;;;11.50;99.90;;;;;;4934156;29;20042;-96
2020/12/18 12:50:50;;;;;;;3.53;0.73;;;11.60;99.90;;;;;;4938621;29;20020;-96
2020/12/18 12:53:30;;;;;;;1.17;0.60;;;11.60;99.90;;;;;;4938192;29;20016;-96
2020/12/18 12:56:03;;;;;;;1.10;0.40;;;11.60;99.90;;;;;;4950494;29;20024;-96
2020/12/18 12:58:35;;;;;;;0.55;0.55;;;11.60;99.90;;;;;;4934834;29;20031;-96
2020/12/18 13:01:01;;;;;;;0.55;0.40;;;11.70;99.90;;;;;;4933488;29;20066;-95
2020/12/18 13:03:26;;;;;;;0.55;0.45;;;11.70;99.90;;;;;;4920485;29;20039;-93
2020/12/18 13:05:52;;;;;;;1.27;0.52;;;11.70;99.90;;;;;;4919979;29;20024;-95
2020/12/18 13:08:18;;;;;;;0.40;0.40;;;11.70;99.90;;;;;;4919311;29;20032;-94
2020/12/18 13:10:44;;;;;;;1.10;0.40;;;11.70;99.90;;;;;;4919670;29;20024;-95
2020/12/18 13:13:09;;;;;;;0.80;0.47;;;11.70;99.90;;;;;;4919481;29;20114;-92
2020/12/18 13:15:36;;;;;;;1.02;0.17;;;11.70;99.90;;;;;;4919967;29;20023;-94
2020/12/18 13:18:02;;;;;;;0.75;0.52;;;11.80;99.90;;;;;;4924143;29;20034;-96
2020/12/18 13:20:28;;;;;;;0.40;0.40;;;11.70;99.90;;;;;;4923434;29;20200;-95
2020/12/18 13:22:54;;;;;;;1.25;0.50;;;11.70;99.90;;;;;;4923595;29;20541;-94
2020/12/18 13:25:23;;;;;;;1.92;0.60;;;11.70;99.90;;;;;;4923256;29;20023;-94
2020/12/18 13:27:53;;;;;;;0.60;0.60;;;11.70;99.90;;;;;;4922506;29;20047;-94
2020/12/18 13:30:19;;;;;;;0.80;0.60;;;11.70;99.90;;;;;;4924882;29;20106;-94
2020/12/18 13:32:45;;;;;;;0.73;0.68;;;11.70;99.90;;;;;;4930607;29;20115;-94
2020/12/18 13:35:11;;;;;;;2.15;0.57;;;11.70;99.90;;;;;;4931672;29;20552;-94
2020/12/18 13:37:37;;;;;;;0.80;0.47;;;11.70;99.90;;;;;;4931974;29;20035;-94
2020/12/18 13:40:04;;;;;;;1.98;0.60;;;11.70;99.90;;;;;;4936691;29;20417;-93
2020/12/18 13:42:30;;;;;;;0.50;0.50;;;11.70;99.90;;;;;;4930072;29;20035;-95
2020/12/18 13:44:56;;;;;;;0.85;0.60;;;11.70;99.90;;;;;;4954616;28;20125;-93
2020/12/18 13:47:24;;;;;;;0.47;0.45;;;11.70;99.90;;;;;;4935455;29;20028;-94
2020/12/18 13:49:50;;;;;;;1.05;0.32;;;11.70;99.90;;;;;;4931358;29;20115;-95
2020/12/18 13:52:15;;;;;;;1.73;0.50;;;11.70;99.90;;;;;;4933880;29;20055;-93
2020/12/18 13:54:41;;;;;;;1.27;0.60;;;11.70;99.90;;;;;;4932212;29;20030;-95
2020/12/18 13:57:06;;;;;;;0.30;0.30;;;11.70;99.90;;;;;;4931926;29;20617;-93
2020/12/18 13:59:32;;;;;;;1.38;0.50;;;11.70;99.90;;;;;;4921839;29;20023;-96
2020/12/18 14:02:02;;;;;;;1.25;0.95;;;11.70;99.90;;;;;;4920909;29;20091;-94
2020/12/18 14:04:28;;;;;;;2.05;0.40;;;11.70;99.90;;;;;;4923408;29;20067;-94
2020/12/18 14:06:58;;;;;;;2.70;0.63;;;11.60;99.90;;;;;;4921720;29;20031;-94
2020/12/18 14:09:24;;;;;;;0.57;0.43;;;11.60;99.90;;;;;;4929744;29;20023;-94
2020/12/18 14:11:50;;;;;;;0.80;0.50;;;11.60;99.90;;;;;;4932911;29;20046;-93
2020/12/18 14:14:15;;;;;;;1.77;1.00;;;11.70;99.90;;;;;;4917169;29;20110;-93
2020/12/18 14:16:41;;;;;;;1.05;0.75;;;11.70;99.90;;;;;;4910316;29;20042;-95
2020/12/18 14:19:07;;;;;;;0.30;0.25;;;11.70;99.90;;;;;;4922524;29;20038;-93
2020/12/18 14:21:33;;;;;;;1.58;0.47;;;11.70;99.90;;;;;;4922712;29;20555;-94
2020/12/18 14:23:59;;;;;;;0.57;0.40;;;11.70;99.90;;;;;;4923091;29;20477;-92
2020/12/18 14:26:24;;;;;;;0.60;0.50;;;11.70;99.90;;;;;;4923407;29;20027;-93
2020/12/18 14:28:50;;;;;;;0.30;0.20;;;11.70;99.90;;;;;;4930052;29;20038;-95
2020/12/18 14:31:16;;;;;;;0.80;0.55;;;11.70;99.90;;;;;;4935981;29;20044;-94
2020/12/18 14:33:42;;;;;;;1.83;0.40;;;11.80;99.90;;;;;;4941012;29;20068;-93
2020/12/18 14:36:08;;;;;;;1.38;0.70;;;11.70;99.90;;;;;;4939860;29;20036;-92
2020/12/18 14:38:34;;;;;;;0.30;0.30;;;11.70;99.90;;;;;;4932452;29;20051;-91
2020/12/18 14:41:00;;;;;;;0.65;0.38;;;11.70;99.90;;;;;;4928407;29;20036;-93
2020/12/18 14:43:29;;;;;;;0.77;0.47;;;11.80;99.90;;;;;;4922742;29;20059;-92
2020/12/18 14:46:05;;;;;;;0.70;0.32;;;11.80;99.90;;;;;;4907361;29;20032;-92
2020/12/18 14:48:31;;;;;;;0.50;0.35;;;11.80;99.90;;;;;;4921584;29;20035;-92
2020/12/18 14:50:57;;;;;;;1.08;0.50;;;11.80;99.90;;;;;;4921951;29;20043;-92
2020/12/18 14:53:26;;;;;;;0.40;0.40;;;11.80;99.90;;;;;;4923601;29;20434;-93
2020/12/18 14:55:54;;;;;;;0.50;0.47;;;11.80;99.90;;;;;;4921774;29;20031;-94
2020/12/18 14:58:20;;;;;;;0.47;0.45;;;11.80;99.90;;;;;;4919368;29;20042;-93
2020/12/18 15:00:46;;;;;;;0.77;0.50;;;11.80;99.90;;;;;;4921157;29;20043;-94
2020/12/18 15:03:11;;;;;;;0.95;0.40;;;11.80;99.90;;;;;;4920102;29;20393;-92
2020/12/18 15:05:37;;;;;;;0.55;0.55;;;11.80;99.90;;;;;;4919928;29;20508;-92
2020/12/18 15:08:03;;;;;;;1.45;0.57;;;11.80;99.90;;;;;;4923900;29;20048;-96
2020/12/18 15:10:28;;;;;;;1.33;0.50;;;11.80;99.90;;;;;;4921322;29;20036;-92
2020/12/18 15:12:57;;;;;;;0.43;0.43;;;11.90;99.90;;;;;;4917809;29;20035;-94
2020/12/18 15:15:23;;;;;;;1.23;0.98;;;11.80;99.90;;;;;;4916682;29;20553;-94
2020/12/18 15:17:48;;;;;;;1.17;0.57;;;11.90;99.90;;;;;;4917491;29;20111;-92
2020/12/18 15:20:17;;;;;;;0.50;0.50;;;11.80;99.90;;;;;;4915246;29;20034;-94
2020/12/18 15:22:43;;;;;;;0.95;0.60;;;11.90;99.90;;;;;;4915203;29;20051;-93
2020/12/18 15:25:09;;;;;;;1.40;0.63;;;11.90;99.90;;;;;;4919565;29;20490;-94
2020/12/18 15:27:34;;;;;;;2.35;1.00;;;11.90;99.90;;;;;;4914088;29;20063;-95
2020/12/18 15:30:00;;;;;;;1.95;1.10;;;11.90;99.90;;;;;;4917904;29;20021;-94
2020/12/18 15:32:26;;;;;;;1.15;0.80;;;11.90;99.90;;;;;;4918048;29;20028;-95
2020/12/18 15:34:52;;;;;;;1.23;1.00;;;11.90;99.90;;;;;;4920905;29;20024;-95
2020/12/18 15:37:17;;;;;;;0.85;0.85;;;11.90;99.90;;;;;;4917320;29;20063;-94
2020/12/18 15:39:43;;;;;;;3.75;1.40;;;12.00;99.90;;;;;;4915503;29;20115;-94
2020/12/18 15:42:09;;;;;;;4.07;1.02;;;12.00;99.90;;;;;;4918840;29;20502;-95
2020/12/18 15:44:35;;;;;;;2.28;1.17;;;12.00;99.90;;;;;;4926161;29;20052;-95
2020/12/18 15:47:01;;;;;;;1.35;1.20;;;12.10;99.90;;;;;;4915855;29;20028;-94
2020/12/18 15:49:26;;;;;;;1.13;0.80;;;12.00;99.90;;;;;;4922028;29;20037;-94
2020/12/18 15:51:53;;;;;;;2.60;1.45;;;12.00;99.90;;;;;;4923181;29;20119;-93
2020/12/18 15:54:19;;;;;;;1.15;1.00;;;12.00;99.90;;;;;;4917959;29;20192;-95
2020/12/18 15:56:49;;;;;;;2.78;1.33;;;12.00;99.90;;;;;;4918352;29;20031;-95
2020/12/18 15:59:16;;;;;;;1.60;1.00;;;12.00;99.90;;;;;;4913040;29;20024;-96
2020/12/18 16:01:41;;;;;;;1.35;0.95;;;12.10;99.90;;;;;;4916791;29;20299;-93
2020/12/18 16:04:08;;;;;;;5.15;3.15;;;12.10;99.90;;;;;;4917312;29;20114;-92
2020/12/18 16:06:34;;;;;;;2.38;1.50;;;12.10;99.90;;;;;;4919809;29;20023;-94
2020/12/18 16:09:04;;;;;;;1.73;1.10;;;12.10;99.90;;;;;;4919097;29;20042;-94
2020/12/18 16:11:30;;;;;;;4.22;2.92;;;12.10;99.90;;;;;;4918830;29;20051;-96
2020/12/18 16:13:56;;;;;;;3.83;1.88;;;12.10;99.90;;;;;;4918866;29;20028;-95
2020/12/18 16:16:22;;;;;;;2.15;1.75;;;12.20;99.90;;;;;;4903073;29;20387;-95
2020/12/18 16:18:47;;;;;;;2.63;0.98;;;12.20;99.90;;;;;;4899621;29;20459;-96
2020/12/18 16:21:13;;;;;;;1.23;0.65;;;12.20;99.90;;;;;;4917573;29;20032;-95
2020/12/18 16:23:39;;;;;;;3.42;1.00;;;12.20;99.90;;;;;;4910467;29;20037;-94
2020/12/18 16:26:07;;;;;;;1.52;0.70;;;12.20;99.90;;;;;;4906531;29;20434;-96
2020/12/18 16:28:39;;;;;;;1.40;1.10;;;12.20;99.90;;;;;;4910158;29;20036;-95
2020/12/18 16:31:08;;;;;;;4.00;1.60;;;12.20;99.90;;;;;;4923829;29;20088;-94
2020/12/18 16:33:35;;;;;;;2.28;0.98;;;12.20;99.90;;;;;;4913634;29;20028;-94
2020/12/18 16:36:01;;;;;;;3.33;1.25;;;12.20;99.90;;;;;;4913465;29;20482;-94
2020/12/18 16:38:26;;;;;;;1.63;1.08;;;12.20;99.90;;;;;;4914183;29;20051;-95
2020/12/18 16:40:53;;;;;;;2.35;1.40;;;12.20;99.90;;;;;;4894249;29;20025;-94
2020/12/18 16:43:22;;;;;;;2.67;1.00;;;12.20;99.90;;;;;;4913744;29;20424;-94
2020/12/18 16:45:47;;;;;;;2.17;1.48;;;12.20;99.90;;;;;;4911706;29;20040;-94
2020/12/18 16:48:13;;;;;;;4.20;1.38;;;12.20;99.90;;;;;;4921027;29;20096;-95
2020/12/18 16:50:42;;;;;;;1.58;0.90;;;12.20;99.90;;;;;;4914282;29;20063;-95
2020/12/18 16:53:07;;;;;;;2.15;1.30;;;12.20;99.90;;;;;;4906238;29;20028;-93
2020/12/18 16:55:33;;;;;;;4.68;1.45;;;12.20;99.90;;;;;;4898921;29;20119;-92
2020/12/18 16:57:59;;;;;;;2.83;1.35;;;12.20;99.90;;;;;;4904142;29;20038;-93
2020/12/18 17:00:26;;;;;;;3.90;1.27;;;12.20;99.90;;;;;;4915507;29;20434;-94
2020/12/18 17:02:54;;;;;;;2.75;1.65;;;12.20;99.90;;;;;;4909301;29;20074;-95
2020/12/18 17:05:20;;;;;;;4.40;1.23;;;12.20;99.90;;;;;;4897314;29;20036;-93
2020/12/18 17:07:46;;;;;;;2.35;1.00;;;12.20;99.90;;;;;;4912151;29;20482;-94
2020/12/18 17:10:13;;;;;;;3.70;1.60;;;12.20;99.90;;;;;;4904261;29;20398;-94
2020/12/18 17:12:44;;;;;;;4.47;2.50;;;12.20;99.90;;;;;;4912853;29;20046;-94
2020/12/18 17:15:10;;;;;;;7.13;3.35;;;12.20;99.90;;;;;;4915131;29;20450;-95
2020/12/18 17:17:36;;;;;;;3.25;2.20;;;12.20;99.90;;;;;;4905678;29;20024;-95
2020/12/18 17:20:04;;;;;;;8.43;4.95;;;12.20;99.90;;;;;;4911885;29;20474;-94
2020/12/18 17:22:29;;;;;;;2.22;1.92;;;12.20;99.90;;;;;;4901991;29;20067;-93
2020/12/18 17:24:55;;;;;;;5.65;1.45;;;12.20;99.90;;;;;;4916927;29;20028;-94
2020/12/18 17:27:26;;;;;;;2.03;1.17;;;12.20;99.90;;;;;;4895143;29;20119;-94
2020/12/18 17:29:52;;;;;;;;;;;12.20;99.90;;;;;;4913819;29;20031;-94
2020/12/18 17:32:18;;;;;;;3.30;1.27;;;12.20;99.90;;;;;;4912897;29;19957;-94
2020/12/18 17:34:44;;;;;;;2.97;1.70;;;12.10;99.90;;;;;;4914640;29;20020;-94
2020/12/18 17:37:11;;;;;;;4.88;1.33;;;12.10;99.90;;;;;;4914916;29;20032;-94
2020/12/18 17:39:37;;;;;;;1.90;1.40;;;12.10;99.90;;;;;;4914710;29;20079;-93
2020/12/18 17:42:03;;;;;;;2.70;1.60;;;12.00;99.90;;;;;;4907642;29;20056;-93
2020/12/18 17:44:29;;;;;;;3.00;1.10;;;12.00;99.90;;;;;;4915442;29;20156;-92
2020/12/18 17:46:55;;;;;;;1.13;0.70;;;11.90;99.90;;;;;;4916217;29;20056;-93
2020/12/18 17:49:22;;;;;;;1.23;0.60;;;11.80;99.90;;;;;;4913909;29;20024;-91
2020/12/18 17:51:52;;;;;;;1.52;0.80;;;11.80;99.90;;;;;;4913568;29;20040;-93
2020/12/18 17:54:18;;;;;;;0.47;0.47;;;11.80;99.90;;;;;;4905011;29;20039;-92
2020/12/18 17:56:44;;;;;;;0.85;0.55;;;11.70;99.90;;;;;;4918535;29;20036;-93
2020/12/18 17:59:09;;;;;;;1.45;0.70;;;11.70;99.90;;;;;;4924710;29;20029;-91
2020/12/18 18:01:36;;;;;;;2.53;0.57;;;11.60;99.90;;;;;;4914370;29;20537;-92
2020/12/18 18:04:01;;;;;;;2.20;1.23;;;11.60;99.90;;;;;;4913354;29;20035;-93
2020/12/18 18:06:27;;;;;;;1.42;0.80;;;11.60;99.90;;;;;;4913121;29;20032;-93
2020/12/18 18:08:53;;;;;;;1.40;1.08;;;11.50;99.90;;;;;;4914208;29;20482;-94
2020/12/18 18:11:23;;;;;;;2.40;1.08;;;11.60;99.90;;;;;;4915427;29;20036;-91
2020/12/18 18:13:49;;;;;;;1.00;0.82;;;11.60;99.90;;;;;;4915606;29;20047;-93
2020/12/18 18:16:15;;;;;;;2.70;0.93;;;11.60;99.90;;;;;;4910712;29;20028;-95
2020/12/18 18:18:41;;;;;;;1.02;0.95;;;11.60;99.90;;;;;;4894028;29;20043;-94
2020/12/18 18:21:06;;;;;;;1.33;1.00;;;11.60;99.90;;;;;;4904857;29;20025;-94
2020/12/18 18:23:32;;;;;;;1.73;1.33;;;11.60;99.90;;;;;;4914021;29;20131;-94
2020/12/18 18:25:58;;;;;;;1.27;0.93;;;11.60;99.90;;;;;;4933099;29;20500;-94
2020/12/18 18:28:23;;;;;;;2.60;1.10;;;11.60;99.90;;;;;;4914689;29;20071;-94
2020/12/18 18:30:49;;;;;;;1.80;1.10;;;11.60;99.90;;;;;;4913706;29;20040;-94
2020/12/18 18:33:15;;;;;;;1.10;0.93;;;11.60;99.90;;;;;;4916083;29;20027;-94
2020/12/18 18:35:42;;;;;;;1.77;1.13;;;11.70;99.90;;;;;;4910274;29;20033;-94
2020/12/18 18:38:09;;;;;;;1.30;1.20;;;11.70;99.90;;;;;;4906404;29;20028;-94
2020/12/18 18:40:34;;;;;;;2.03;1.30;;;11.70;99.90;;;;;;4913208;29;20048;-94
2020/12/18 18:43:00;;;;;;;3.35;1.30;;;11.70;99.90;;;;;;4908818;29;20086;-94
2020/12/18 18:45:27;;;;;;;2.90;1.85;;;11.70;99.90;;;;;;4917746;29;20516;-96
2020/12/18 18:47:53;;;;;;;1.40;1.25;;;11.70;99.90;;;;;;4913646;29;20040;-95
2020/12/18 18:50:19;;;;;;;1.70;1.30;;;11.70;99.90;;;;;;4916667;29;20447;-94
2020/12/18 18:52:48;;;;;;;1.85;1.48;;;11.70;99.90;;;;;;4914781;29;20033;-96
2020/12/18 18:55:14;;;;;;;2.78;1.25;;;11.80;99.90;;;;;;4893046;29;20024;-94
2020/12/18 18:57:39;;;;;;;2.22;1.40;;;11.80;99.90;;;;;;4910189;29;20074;-95
2020/12/18 19:00:05;;;;;;;2.38;1.30;;;11.80;99.90;;;;;;4916728;29;20044;-94
2020/12/18 19:02:31;;;;;;;1.52;1.00;;;11.80;99.90;;;;;;4916668;29;20043;-95
2020/12/18 19:04:56;;;;;;;2.38;1.48;;;11.90;99.90;;;;;;4920186;29;20031;-95
2020/12/18 19:07:22;;;;;;;2.45;1.25;;;11.90;99.90;;;;;;4915583;29;20042;-95
2020/12/18 19:09:48;;;;;;;2.42;1.25;;;11.90;99.90;;;;;;4897110;29;20421;-96
2020/12/18 19:12:17;;;;;;;2.10;1.50;;;11.90;99.90;;;;;;4902408;29;20112;-96
2020/12/18 19:14:43;;;;;;;1.55;1.15;;;11.90;99.90;;;;;;4909799;29;20032;-94
2020/12/18 19:17:09;;;;;;;2.15;1.25;;;11.90;99.90;;;;;;4898437;29;20033;-91
2020/12/18 19:19:35;;;;;;;2.70;1.48;;;11.90;99.90;;;;;;4918458;29;20038;-96
2020/12/18 19:22:00;;;;;;;2.30;1.80;;;11.90;99.90;;;;;;4918355;29;20036;-94
2020/12/18 19:24:29;;;;;;;2.92;1.40;;;11.90;99.90;;;;;;4919925;29;20076;-94
2020/12/18 19:26:55;;;;;;;2.85;1.27;;;11.90;99.90;;;;;;4897484;29;20032;-93
2020/12/18 19:29:21;;;;;;;3.33;1.58;;;11.90;99.90;;;;;;4903859;29;20483;-91
2020/12/18 19:31:47;;;;;;;2.17;1.77;;;11.90;99.90;;;;;;4915434;29;20063;-93
2020/12/18 19:34:13;;;;;;;2.90;1.30;;;11.90;99.90;;;;;;4913846;29;20052;-93
2020/12/18 19:36:41;;;;;;;2.53;1.42;;;11.90;99.90;;;;;;4895782;29;20060;-94
2020/12/18 19:39:08;;;;;;;1.92;1.20;;;11.90;99.90;;;;;;4915217;29;20028;-93
2020/12/18 19:41:36;;;;;;;2.50;0.75;;;11.90;99.90;;;;;;4898811;29;20493;-94
2020/12/18 19:44:02;;;;;;;1.35;0.90;;;11.90;99.90;;;;;;4916367;29;20051;-92
2020/12/18 19:46:28;;;;;;;2.30;1.15;;;11.90;99.90;;;;;;4913586;29;20039;-92
2020/12/18 19:48:54;;;;;;;1.67;0.98;;;11.90;99.90;;;;;;4917732;29;20497;-95
2020/12/18 19:51:22;;;;;;;1.15;0.85;;;11.90;99.90;;;;;;4916641;29;20028;-94
2020/12/18 19:53:52;;;;;;;3.63;1.10;;;11.90;99.90;;;;;;4916878;29;20483;-95
2020/12/18 19:56:19;;;;;;;2.03;1.27;;;11.90;99.90;;;;;;4916438;29;20470;-95
2020/12/18 19:58:44;;;;;;;2.65;1.15;;;11.90;99.90;;;;;;4921786;29;20040;-95
2020/12/18 20:01:17;;;;;;;1.42;1.05;;;11.90;99.90;;;;;;4920086;29;20583;-94
2020/12/18 20:03:43;;;;;;;4.20;1.10;;;11.90;99.90;;;;;;4919076;29;20549;-96
2020/12/18 20:06:09;;;;;;;2.97;1.10;;;11.90;99.90;;;;;;4922323;29;20027;-95
2020/12/18 20:08:37;;;;;;;2.30;1.70;;;11.90;99.90;;;;;;4933037;28;20042;-96
2020/12/18 20:11:03;;;;;;;1.60;1.17;;;11.90;99.90;;;;;;4939579;29;20112;-95
2020/12/18 20:13:29;;;;;;;5.20;1.33;;;11.90;99.90;;;;;;4933412;29;20024;-95
2020/12/18 20:15:55;;;;;;;5.00;1.35;;;11.90;99.90;;;;;;4921063;29;20502;-96
2020/12/18 20:18:20;;;;;;;3.53;1.40;;;11.90;99.90;;;;;;4921193;29;20032;-95
2020/12/18 20:20:47;;;;;;;3.17;1.45;;;11.80;99.90;;;;;;4919164;29;20062;-94
2020/12/18 20:23:14;;;;;;;4.55;1.27;;;11.80;99.90;;;;;;4921829;29;20039;-96
2020/12/18 20:25:40;;;;;;;2.83;1.20;;;11.80;99.90;;;;;;4918865;29;20036;-96
2020/12/18 20:28:06;;;;;;;3.88;1.30;;;11.90;99.90;;;;;;4917846;29;20122;-95
2020/12/18 20:30:33;;;;;;;6.75;1.25;;;11.80;99.90;;;;;;4921047;29;20030;-96
2020/12/18 20:32:59;;;;;;;3.00;1.27;;;11.80;99.90;;;;;;4921017;29;20122;-96
2020/12/18 20:35:26;;;;;;;2.33;0.85;;;11.80;99.90;;;;;;4924356;29;20039;-96
2020/12/18 20:37:51;;;;;;;1.52;0.90;;;11.80;99.90;;;;;;4923219;29;20031;-96
2020/12/18 20:40:17;;;;;;;2.15;1.00;;;11.80;99.90;;;;;;4920134;29;20079;-94
2020/12/18 20:42:43;;;;;;;1.10;0.82;;;11.80;99.90;;;;;;4916007;29;20035;-95
2020/12/18 20:45:11;;;;;;;2.03;0.90;;;11.70;99.90;;;;;;4915302;29;20062;-95
2020/12/18 20:47:39;;;;;;;2.25;0.80;;;11.80;99.90;;;;;;4915252;29;20047;-94
2020/12/18 20:50:09;;;;;;;0.90;0.75;;;11.70;99.90;;;;;;4915771;29;20043;-94
2020/12/18 20:52:35;;;;;;;1.15;0.85;;;11.70;99.90;;;;;;4914254;29;20028;-93
2020/12/18 20:55:03;;;;;;;1.35;0.80;;;11.70;99.90;;;;;;4917318;29;20038;-93